sensor_id;sensor_type;location;lat;lon;timestamp;P1;durP1;ratioP1;P2;durP2;ratioP2
70426;SDS011;57872;55.432;37.248;2022-07-29T00:02:02;7.72;;;2.53;;
70426;SDS011;57872;55.432;37.248;2022-07-29T00:07:03;5.57;;;2.22;;
70426;SDS011;57872;55.432;37.248;2022-07-29T00:12:03;7.47;;;2.28;;
70426;SDS011;57872;55.432;37.248;2022-07-29T00:17:04;6.63;;;2.25;;
70426;SDS011;57872;55.432;37.248;2022-07-29T00:22:04;6.57;;;2.53;;
70426;SDS011;57872;55.432;37.248;2022-07-29T00:27:05;6.20;;;2.47;;
70426;SDS011;57872;55.432;37.248;2022-07-29T00:32:05;8.75;;;2.10;;
70426;SDS011;57872;55.432;37.248;2022-07-29T00:37:06;8.05;;;2.45;;
70426;SDS011;57872;55.432;37.248;2022-07-29T00:42:06;6.88;;;2.25;;
70426;SDS011;57872;55.432;37.248;2022-07-29T00:47:08;7.93;;;2.40;;
70426;SDS011;57872;55.432;37.248;2022-07-29T00:52:09;7.55;;;2.40;;
70426;SDS011;57872;55.432;37.248;2022-07-29T00:57:10;6.95;;;2.53;;
70426;SDS011;57872;55.432;37.248;2022-07-29T01:02:11;6.50;;;2.60;;
70426;SDS011;57872;55.432;37.248;2022-07-29T01:07:11;8.55;;;2.20;;
70426;SDS011;57872;55.432;37.248;2022-07-29T01:12:16;12.02;;;2.88;;
70426;SDS011;57872;55.432;37.248;2022-07-29T01:22:44;6.25;;;2.53;;
70426;SDS011;57872;55.432;37.248;2022-07-29T01:33:17;9.13;;;2.97;;
70426;SDS011;57872;55.432;37.248;2022-07-29T01:38:37;9.05;;;2.65;;
70426;SDS011;57872;55.432;37.248;2022-07-29T01:43:42;9.95;;;2.40;;
70426;SDS011;57872;55.432;37.248;2022-07-29T01:48:48;5.60;;;2.40;;
70426;SDS011;57872;55.432;37.248;2022-07-29T01:54:03;7.40;;;2.50;;
70426;SDS011;57872;55.432;37.248;2022-07-29T01:59:06;6.22;;;2.35;;
70426;SDS011;57872;55.432;37.248;2022-07-29T02:04:08;10.35;;;2.50;;
70426;SDS011;57872;55.432;37.248;2022-07-29T02:09:10;7.83;;;2.37;;
70426;SDS011;57872;55.432;37.248;2022-07-29T02:14:11;8.43;;;2.42;;
70426;SDS011;57872;55.432;37.248;2022-07-29T02:19:12;5.72;;;2.30;;
70426;SDS011;57872;55.432;37.248;2022-07-29T02:24:14;6.75;;;2.58;;
70426;SDS011;57872;55.432;37.248;2022-07-29T02:29:15;8.82;;;2.70;;
70426;SDS011;57872;55.432;37.248;2022-07-29T02:34:16;9.68;;;3.20;;
70426;SDS011;57872;55.432;37.248;2022-07-29T02:39:18;7.60;;;2.90;;
70426;SDS011;57872;55.432;37.248;2022-07-29T02:44:20;10.48;;;2.80;;
70426;SDS011;57872;55.432;37.248;2022-07-29T02:59:34;6.18;;;2.33;;
70426;SDS011;57872;55.432;37.248;2022-07-29T03:04:36;7.53;;;2.38;;
70426;SDS011;57872;55.432;37.248;2022-07-29T03:09:40;9.25;;;2.92;;
70426;SDS011;57872;55.432;37.248;2022-07-29T03:14:42;8.60;;;2.92;;
70426;SDS011;57872;55.432;37.248;2022-07-29T03:19:43;5.75;;;2.33;;
70426;SDS011;57872;55.432;37.248;2022-07-29T03:24:44;7.28;;;2.45;;
70426;SDS011;57872;55.432;37.248;2022-07-29T03:29:44;7.88;;;2.47;;
70426;SDS011;57872;55.432;37.248;2022-07-29T03:34:45;6.75;;;2.58;;
70426;SDS011;57872;55.432;37.248;2022-07-29T03:39:45;4.75;;;2.20;;
70426;SDS011;57872;55.432;37.248;2022-07-29T03:44:47;6.95;;;2.55;;
70426;SDS011;57872;55.432;37.248;2022-07-29T03:49:48;6.68;;;2.65;;
70426;SDS011;57872;55.432;37.248;2022-07-29T03:54:50;5.45;;;2.35;;
70426;SDS011;57872;55.432;37.248;2022-07-29T03:59:51;5.70;;;2.47;;
70426;SDS011;57872;55.432;37.248;2022-07-29T04:04:52;6.45;;;2.17;;
70426;SDS011;57872;55.432;37.248;2022-07-29T04:09:52;5.45;;;2.10;;
70426;SDS011;57872;55.432;37.248;2022-07-29T04:14:53;6.50;;;2.50;;
70426;SDS011;57872;55.432;37.248;2022-07-29T04:19:53;5.78;;;2.28;;
70426;SDS011;57872;55.432;37.248;2022-07-29T04:24:54;6.50;;;2.00;;
70426;SDS011;57872;55.432;37.248;2022-07-29T04:29:54;6.38;;;2.38;;
70426;SDS011;57872;55.432;37.248;2022-07-29T04:34:54;8.90;;;2.53;;
70426;SDS011;57872;55.432;37.248;2022-07-29T04:39:55;5.07;;;2.13;;
70426;SDS011;57872;55.432;37.248;2022-07-29T04:44:55;6.60;;;2.00;;
70426;SDS011;57872;55.432;37.248;2022-07-29T04:49:56;7.55;;;2.10;;
70426;SDS011;57872;55.432;37.248;2022-07-29T04:54:56;6.00;;;2.35;;
70426;SDS011;57872;55.432;37.248;2022-07-29T04:59:57;7.63;;;2.45;;
70426;SDS011;57872;55.432;37.248;2022-07-29T05:04:57;5.18;;;1.90;;
70426;SDS011;57872;55.432;37.248;2022-07-29T05:09:57;6.78;;;2.15;;
70426;SDS011;57872;55.432;37.248;2022-07-29T05:14:58;8.00;;;2.10;;
70426;SDS011;57872;55.432;37.248;2022-07-29T05:19:58;5.45;;;2.17;;
70426;SDS011;57872;55.432;37.248;2022-07-29T05:24:59;7.15;;;2.08;;
70426;SDS011;57872;55.432;37.248;2022-07-29T05:29:59;7.53;;;1.70;;
70426;SDS011;57872;55.432;37.248;2022-07-29T05:35:00;7.30;;;2.20;;
70426;SDS011;57872;55.432;37.248;2022-07-29T05:40:01;6.53;;;2.10;;
70426;SDS011;57872;55.432;37.248;2022-07-29T05:45:01;5.97;;;1.83;;
70426;SDS011;57872;55.432;37.248;2022-07-29T05:50:02;7.57;;;2.47;;
70426;SDS011;57872;55.432;37.248;2022-07-29T05:55:03;7.53;;;2.08;;
70426;SDS011;57872;55.432;37.248;2022-07-29T06:00:05;6.43;;;1.90;;
70426;SDS011;57872;55.432;37.248;2022-07-29T06:05:12;7.28;;;2.05;;
70426;SDS011;57872;55.432;37.248;2022-07-29T06:10:13;6.80;;;2.10;;
70426;SDS011;57872;55.432;37.248;2022-07-29T06:15:13;4.85;;;2.13;;
70426;SDS011;57872;55.432;37.248;2022-07-29T06:20:13;6.88;;;2.00;;
70426;SDS011;57872;55.432;37.248;2022-07-29T06:25:14;6.93;;;1.90;;
70426;SDS011;57872;55.432;37.248;2022-07-29T06:30:14;5.82;;;1.80;;
70426;SDS011;57872;55.432;37.248;2022-07-29T06:35:15;6.00;;;1.80;;
70426;SDS011;57872;55.432;37.248;2022-07-29T06:40:16;6.07;;;1.80;;
70426;SDS011;57872;55.432;37.248;2022-07-29T06:45:35;6.63;;;2.10;;
70426;SDS011;57872;55.432;37.248;2022-07-29T06:50:35;6.47;;;2.17;;
70426;SDS011;57872;55.432;37.248;2022-07-29T06:55:36;5.30;;;1.60;;
70426;SDS011;57872;55.432;37.248;2022-07-29T07:00:37;5.60;;;2.00;;
70426;SDS011;57872;55.432;37.248;2022-07-29T07:05:38;5.72;;;1.77;;
70426;SDS011;57872;55.432;37.248;2022-07-29T07:10:39;4.75;;;1.60;;
70426;SDS011;57872;55.432;37.248;2022-07-29T07:15:40;4.20;;;1.60;;
70426;SDS011;57872;55.432;37.248;2022-07-29T07:20:41;4.40;;;1.50;;
70426;SDS011;57872;55.432;37.248;2022-07-29T07:25:41;6.53;;;1.52;;
70426;SDS011;57872;55.432;37.248;2022-07-29T07:30:42;5.72;;;1.50;;
70426;SDS011;57872;55.432;37.248;2022-07-29T07:35:42;6.80;;;1.70;;
70426;SDS011;57872;55.432;37.248;2022-07-29T07:40:44;7.17;;;1.70;;
70426;SDS011;57872;55.432;37.248;2022-07-29T07:45:46;5.47;;;1.50;;
70426;SDS011;57872;55.432;37.248;2022-07-29T07:50:46;6.50;;;2.13;;
70426;SDS011;57872;55.432;37.248;2022-07-29T07:55:49;5.55;;;1.65;;
70426;SDS011;57872;55.432;37.248;2022-07-29T08:00:49;7.78;;;1.60;;
70426;SDS011;57872;55.432;37.248;2022-07-29T08:05:50;4.28;;;1.67;;
70426;SDS011;57872;55.432;37.248;2022-07-29T08:10:51;5.15;;;1.90;;
70426;SDS011;57872;55.432;37.248;2022-07-29T08:15:52;5.15;;;2.08;;
70426;SDS011;57872;55.432;37.248;2022-07-29T08:21:01;6.60;;;1.70;;
70426;SDS011;57872;55.432;37.248;2022-07-29T08:26:02;4.60;;;1.60;;
70426;SDS011;57872;55.432;37.248;2022-07-29T08:31:02;5.00;;;1.45;;
70426;SDS011;57872;55.432;37.248;2022-07-29T08:36:03;6.07;;;1.65;;
70426;SDS011;57872;55.432;37.248;2022-07-29T08:41:03;4.03;;;1.60;;
70426;SDS011;57872;55.432;37.248;2022-07-29T08:46:04;3.30;;;1.40;;
70426;SDS011;57872;55.432;37.248;2022-07-29T08:51:04;6.35;;;1.63;;
70426;SDS011;57872;55.432;37.248;2022-07-29T08:56:07;4.13;;;1.52;;
70426;SDS011;57872;55.432;37.248;2022-07-29T09:01:07;4.57;;;1.27;;
70426;SDS011;57872;55.432;37.248;2022-07-29T09:06:08;3.90;;;1.50;;
70426;SDS011;57872;55.432;37.248;2022-07-29T09:11:09;5.47;;;1.48;;
70426;SDS011;57872;55.432;37.248;2022-07-29T09:16:11;4.15;;;1.30;;
70426;SDS011;57872;55.432;37.248;2022-07-29T09:21:13;3.67;;;1.20;;
70426;SDS011;57872;55.432;37.248;2022-07-29T09:26:34;5.78;;;1.50;;
70426;SDS011;57872;55.432;37.248;2022-07-29T09:31:38;3.85;;;1.30;;
70426;SDS011;57872;55.432;37.248;2022-07-29T09:36:40;4.18;;;1.60;;
70426;SDS011;57872;55.432;37.248;2022-07-29T09:41:48;4.70;;;1.50;;
70426;SDS011;57872;55.432;37.248;2022-07-29T09:46:53;5.15;;;1.50;;
70426;SDS011;57872;55.432;37.248;2022-07-29T09:52:03;3.55;;;1.30;;
70426;SDS011;57872;55.432;37.248;2022-07-29T09:57:05;4.20;;;1.30;;
70426;SDS011;57872;55.432;37.248;2022-07-29T10:02:12;3.73;;;1.37;;
70426;SDS011;57872;55.432;37.248;2022-07-29T10:07:13;4.82;;;1.65;;
70426;SDS011;57872;55.432;37.248;2022-07-29T10:12:14;5.88;;;1.60;;
70426;SDS011;57872;55.432;37.248;2022-07-29T10:17:14;4.82;;;1.60;;
70426;SDS011;57872;55.432;37.248;2022-07-29T10:22:15;4.10;;;1.30;;
70426;SDS011;57872;55.432;37.248;2022-07-29T10:27:16;4.10;;;1.40;;
70426;SDS011;57872;55.432;37.248;2022-07-29T10:42:40;3.60;;;1.33;;
70426;SDS011;57872;55.432;37.248;2022-07-29T10:47:41;4.00;;;1.40;;
70426;SDS011;57872;55.432;37.248;2022-07-29T10:58:12;4.00;;;1.42;;
70426;SDS011;57872;55.432;37.248;2022-07-29T11:08:32;4.45;;;1.50;;
70426;SDS011;57872;55.432;37.248;2022-07-29T11:24:11;4.85;;;1.50;;
70426;SDS011;57872;55.432;37.248;2022-07-29T11:29:16;5.83;;;1.80;;
70426;SDS011;57872;55.432;37.248;2022-07-29T11:39:25;5.03;;;1.40;;
70426;SDS011;57872;55.432;37.248;2022-07-29T11:49:45;3.60;;;1.40;;
70426;SDS011;57872;55.432;37.248;2022-07-29T11:54:49;4.90;;;1.30;;
70426;SDS011;57872;55.432;37.248;2022-07-29T11:59:50;4.60;;;1.38;;
70426;SDS011;57872;55.432;37.248;2022-07-29T12:04:55;5.72;;;1.40;;
70426;SDS011;57872;55.432;37.248;2022-07-29T12:09:56;4.95;;;1.13;;
70426;SDS011;57872;55.432;37.248;2022-07-29T12:14:56;3.67;;;1.20;;
70426;SDS011;57872;55.432;37.248;2022-07-29T12:19:57;10.48;;;1.60;;
70426;SDS011;57872;55.432;37.248;2022-07-29T12:25:02;4.72;;;1.30;;
70426;SDS011;57872;55.432;37.248;2022-07-29T12:30:06;3.42;;;1.20;;
70426;SDS011;57872;55.432;37.248;2022-07-29T12:35:09;4.07;;;1.42;;
70426;SDS011;57872;55.432;37.248;2022-07-29T12:40:11;4.55;;;1.35;;
70426;SDS011;57872;55.432;37.248;2022-07-29T12:45:12;6.50;;;1.58;;
70426;SDS011;57872;55.432;37.248;2022-07-29T12:50:13;4.22;;;1.52;;
70426;SDS011;57872;55.432;37.248;2022-07-29T13:00:37;4.55;;;1.60;;
70426;SDS011;57872;55.432;37.248;2022-07-29T13:05:38;3.47;;;1.50;;
70426;SDS011;57872;55.432;37.248;2022-07-29T13:10:42;4.00;;;1.40;;
70426;SDS011;57872;55.432;37.248;2022-07-29T13:15:45;3.40;;;1.40;;
70426;SDS011;57872;55.432;37.248;2022-07-29T13:20:48;4.32;;;1.70;;
70426;SDS011;57872;55.432;37.248;2022-07-29T13:25:49;5.05;;;1.60;;
70426;SDS011;57872;55.432;37.248;2022-07-29T13:30:49;4.28;;;1.42;;
70426;SDS011;57872;55.432;37.248;2022-07-29T13:35:50;5.25;;;1.40;;
70426;SDS011;57872;55.432;37.248;2022-07-29T13:40:50;4.78;;;1.45;;
70426;SDS011;57872;55.432;37.248;2022-07-29T13:45:51;6.97;;;1.42;;
70426;SDS011;57872;55.432;37.248;2022-07-29T13:50:52;5.85;;;1.40;;
70426;SDS011;57872;55.432;37.248;2022-07-29T13:55:52;5.47;;;1.67;;
70426;SDS011;57872;55.432;37.248;2022-07-29T14:00:53;5.90;;;1.50;;
70426;SDS011;57872;55.432;37.248;2022-07-29T14:05:53;4.50;;;1.40;;
70426;SDS011;57872;55.432;37.248;2022-07-29T14:10:54;3.08;;;1.13;;
70426;SDS011;57872;55.432;37.248;2022-07-29T14:15:54;4.35;;;1.30;;
70426;SDS011;57872;55.432;37.248;2022-07-29T14:20:55;5.38;;;1.38;;
70426;SDS011;57872;55.432;37.248;2022-07-29T14:25:55;4.60;;;1.42;;
70426;SDS011;57872;55.432;37.248;2022-07-29T14:30:56;5.78;;;1.40;;
70426;SDS011;57872;55.432;37.248;2022-07-29T14:35:56;4.70;;;1.48;;
70426;SDS011;57872;55.432;37.248;2022-07-29T14:40:57;3.97;;;1.40;;
70426;SDS011;57872;55.432;37.248;2022-07-29T14:45:57;5.00;;;1.60;;
70426;SDS011;57872;55.432;37.248;2022-07-29T14:50:57;7.10;;;1.42;;
70426;SDS011;57872;55.432;37.248;2022-07-29T14:55:59;4.47;;;1.50;;
70426;SDS011;57872;55.432;37.248;2022-07-29T15:00:59;5.43;;;1.52;;
70426;SDS011;57872;55.432;37.248;2022-07-29T15:06:01;5.15;;;1.40;;
70426;SDS011;57872;55.432;37.248;2022-07-29T15:11:01;4.65;;;1.52;;
70426;SDS011;57872;55.432;37.248;2022-07-29T15:16:02;4.95;;;1.50;;
70426;SDS011;57872;55.432;37.248;2022-07-29T15:21:02;5.82;;;1.40;;
70426;SDS011;57872;55.432;37.248;2022-07-29T15:26:03;4.20;;;1.48;;
70426;SDS011;57872;55.432;37.248;2022-07-29T15:31:04;3.90;;;1.38;;
70426;SDS011;57872;55.432;37.248;2022-07-29T15:36:04;4.38;;;1.50;;
70426;SDS011;57872;55.432;37.248;2022-07-29T15:41:05;4.45;;;1.60;;
70426;SDS011;57872;55.432;37.248;2022-07-29T15:46:05;6.95;;;1.50;;
70426;SDS011;57872;55.432;37.248;2022-07-29T15:51:24;7.03;;;1.60;;
70426;SDS011;57872;55.432;37.248;2022-07-29T15:56:25;5.22;;;1.70;;
70426;SDS011;57872;55.432;37.248;2022-07-29T16:01:25;5.05;;;1.70;;
70426;SDS011;57872;55.432;37.248;2022-07-29T16:06:26;4.50;;;1.60;;
70426;SDS011;57872;55.432;37.248;2022-07-29T16:11:27;4.47;;;1.50;;
70426;SDS011;57872;55.432;37.248;2022-07-29T16:16:27;8.38;;;1.80;;
70426;SDS011;57872;55.432;37.248;2022-07-29T16:21:27;5.18;;;1.70;;
70426;SDS011;57872;55.432;37.248;2022-07-29T16:26:28;5.40;;;2.30;;
70426;SDS011;57872;55.432;37.248;2022-07-29T16:31:29;7.93;;;3.00;;
70426;SDS011;57872;55.432;37.248;2022-07-29T16:36:29;5.97;;;2.20;;
70426;SDS011;57872;55.432;37.248;2022-07-29T16:41:30;6.18;;;1.70;;
70426;SDS011;57872;55.432;37.248;2022-07-29T16:46:31;5.30;;;2.05;;
70426;SDS011;57872;55.432;37.248;2022-07-29T16:51:36;5.90;;;2.17;;
70426;SDS011;57872;55.432;37.248;2022-07-29T16:56:36;5.35;;;2.00;;
70426;SDS011;57872;55.432;37.248;2022-07-29T17:01:37;6.13;;;1.98;;
70426;SDS011;57872;55.432;37.248;2022-07-29T17:06:38;6.93;;;1.52;;
70426;SDS011;57872;55.432;37.248;2022-07-29T17:11:39;8.00;;;2.13;;
70426;SDS011;57872;55.432;37.248;2022-07-29T17:16:40;14.40;;;2.60;;
70426;SDS011;57872;55.432;37.248;2022-07-29T17:21:41;7.32;;;1.90;;
70426;SDS011;57872;55.432;37.248;2022-07-29T17:26:41;6.13;;;1.80;;
70426;SDS011;57872;55.432;37.248;2022-07-29T17:31:43;5.63;;;1.65;;
70426;SDS011;57872;55.432;37.248;2022-07-29T17:36:44;7.25;;;1.90;;
70426;SDS011;57872;55.432;37.248;2022-07-29T17:41:44;5.00;;;1.70;;
70426;SDS011;57872;55.432;37.248;2022-07-29T17:46:46;8.53;;;1.93;;
70426;SDS011;57872;55.432;37.248;2022-07-29T17:51:46;9.77;;;1.80;;
70426;SDS011;57872;55.432;37.248;2022-07-29T17:56:46;6.85;;;1.83;;
70426;SDS011;57872;55.432;37.248;2022-07-29T18:01:47;5.35;;;1.90;;
70426;SDS011;57872;55.432;37.248;2022-07-29T18:06:47;6.05;;;2.00;;
70426;SDS011;57872;55.432;37.248;2022-07-29T18:11:48;5.50;;;1.92;;
70426;SDS011;57872;55.432;37.248;2022-07-29T18:16:48;7.10;;;1.92;;
70426;SDS011;57872;55.432;37.248;2022-07-29T18:21:49;7.53;;;2.13;;
70426;SDS011;57872;55.432;37.248;2022-07-29T18:26:49;5.03;;;2.00;;
70426;SDS011;57872;55.432;37.248;2022-07-29T18:31:49;7.28;;;2.30;;
70426;SDS011;57872;55.432;37.248;2022-07-29T18:36:50;6.43;;;2.47;;
70426;SDS011;57872;55.432;37.248;2022-07-29T18:41:50;6.22;;;2.45;;
70426;SDS011;57872;55.432;37.248;2022-07-29T18:46:51;5.85;;;2.13;;
70426;SDS011;57872;55.432;37.248;2022-07-29T18:51:52;5.15;;;2.30;;
70426;SDS011;57872;55.432;37.248;2022-07-29T18:56:52;5.85;;;2.53;;
70426;SDS011;57872;55.432;37.248;2022-07-29T19:01:53;5.70;;;2.25;;
70426;SDS011;57872;55.432;37.248;2022-07-29T19:06:53;11.40;;;2.95;;
70426;SDS011;57872;55.432;37.248;2022-07-29T19:11:54;8.48;;;2.60;;
70426;SDS011;57872;55.432;37.248;2022-07-29T19:16:54;12.07;;;2.90;;
70426;SDS011;57872;55.432;37.248;2022-07-29T19:21:55;6.03;;;2.40;;
70426;SDS011;57872;55.432;37.248;2022-07-29T19:26:55;7.30;;;2.78;;
70426;SDS011;57872;55.432;37.248;2022-07-29T19:31:56;9.35;;;2.80;;
70426;SDS011;57872;55.432;37.248;2022-07-29T19:36:56;12.48;;;5.50;;
70426;SDS011;57872;55.432;37.248;2022-07-29T19:41:57;13.93;;;5.53;;
70426;SDS011;57872;55.432;37.248;2022-07-29T19:46:57;15.13;;;6.20;;
70426;SDS011;57872;55.432;37.248;2022-07-29T19:51:59;11.00;;;5.23;;
70426;SDS011;57872;55.432;37.248;2022-07-29T19:56:59;12.45;;;5.55;;
70426;SDS011;57872;55.432;37.248;2022-07-29T20:02:00;12.00;;;4.85;;
70426;SDS011;57872;55.432;37.248;2022-07-29T20:07:00;12.30;;;5.72;;
70426;SDS011;57872;55.432;37.248;2022-07-29T20:12:01;8.25;;;4.20;;
70426;SDS011;57872;55.432;37.248;2022-07-29T20:17:03;10.02;;;4.35;;
70426;SDS011;57872;55.432;37.248;2022-07-29T20:22:05;8.82;;;4.32;;
70426;SDS011;57872;55.432;37.248;2022-07-29T20:27:06;8.38;;;4.80;;
70426;SDS011;57872;55.432;37.248;2022-07-29T20:32:07;10.77;;;5.10;;
70426;SDS011;57872;55.432;37.248;2022-07-29T20:37:08;10.55;;;4.53;;
70426;SDS011;57872;55.432;37.248;2022-07-29T20:42:14;10.05;;;3.90;;
70426;SDS011;57872;55.432;37.248;2022-07-29T20:47:14;7.93;;;4.13;;
70426;SDS011;57872;55.432;37.248;2022-07-29T20:52:15;9.90;;;4.20;;
70426;SDS011;57872;55.432;37.248;2022-07-29T20:57:17;8.23;;;3.63;;
70426;SDS011;57872;55.432;37.248;2022-07-29T21:02:18;9.27;;;4.05;;
70426;SDS011;57872;55.432;37.248;2022-07-29T21:07:18;8.55;;;4.10;;
70426;SDS011;57872;55.432;37.248;2022-07-29T21:12:19;8.88;;;3.83;;
70426;SDS011;57872;55.432;37.248;2022-07-29T21:17:19;9.05;;;3.70;;
70426;SDS011;57872;55.432;37.248;2022-07-29T21:22:21;8.98;;;3.75;;
70426;SDS011;57872;55.432;37.248;2022-07-29T21:27:21;8.07;;;3.88;;
70426;SDS011;57872;55.432;37.248;2022-07-29T21:32:40;7.80;;;3.95;;
70426;SDS011;57872;55.432;37.248;2022-07-29T21:37:41;7.75;;;3.47;;
70426;SDS011;57872;55.432;37.248;2022-07-29T21:42:41;9.02;;;3.17;;
70426;SDS011;57872;55.432;37.248;2022-07-29T21:47:43;6.57;;;3.20;;
70426;SDS011;57872;55.432;37.248;2022-07-29T21:52:43;8.63;;;3.17;;
70426;SDS011;57872;55.432;37.248;2022-07-29T21:57:44;7.75;;;3.33;;
70426;SDS011;57872;55.432;37.248;2022-07-29T22:02:44;8.30;;;3.60;;
70426;SDS011;57872;55.432;37.248;2022-07-29T22:07:45;11.15;;;5.07;;
70426;SDS011;57872;55.432;37.248;2022-07-29T22:12:45;7.43;;;3.25;;
70426;SDS011;57872;55.432;37.248;2022-07-29T22:22:48;7.63;;;3.37;;
70426;SDS011;57872;55.432;37.248;2022-07-29T22:27:49;8.13;;;3.13;;
70426;SDS011;57872;55.432;37.248;2022-07-29T22:32:49;11.55;;;4.25;;
70426;SDS011;57872;55.432;37.248;2022-07-29T22:37:50;9.00;;;3.70;;
70426;SDS011;57872;55.432;37.248;2022-07-29T22:42:52;9.73;;;3.80;;
70426;SDS011;57872;55.432;37.248;2022-07-29T22:47:52;12.73;;;3.50;;
70426;SDS011;57872;55.432;37.248;2022-07-29T22:52:53;8.77;;;3.35;;
70426;SDS011;57872;55.432;37.248;2022-07-29T22:57:53;7.13;;;3.60;;
70426;SDS011;57872;55.432;37.248;2022-07-29T23:02:54;7.57;;;3.35;;
70426;SDS011;57872;55.432;37.248;2022-07-29T23:07:54;9.23;;;4.15;;
70426;SDS011;57872;55.432;37.248;2022-07-29T23:12:55;8.30;;;3.30;;
70426;SDS011;57872;55.432;37.248;2022-07-29T23:17:55;15.90;;;4.25;;
70426;SDS011;57872;55.432;37.248;2022-07-29T23:22:56;7.85;;;3.45;;
70426;SDS011;57872;55.432;37.248;2022-07-29T23:27:56;8.32;;;3.15;;
70426;SDS011;57872;55.432;37.248;2022-07-29T23:32:56;6.80;;;3.00;;
70426;SDS011;57872;55.432;37.248;2022-07-29T23:37:57;7.40;;;3.10;;
70426;SDS011;57872;55.432;37.248;2022-07-29T23:42:57;7.30;;;3.35;;
70426;SDS011;57872;55.432;37.248;2022-07-29T23:48:01;6.40;;;2.78;;
70426;SDS011;57872;55.432;37.248;2022-07-29T23:53:02;7.47;;;2.78;;
70426;SDS011;57872;55.432;37.248;2022-07-29T23:58:02;6.88;;;3.25;;
